23:49
Airports
Links
Donate
Help keep this website running!
PayPal
Bitcoin
MATER
No METAR for SBBW
Current Weather Conditions at
No weather report for SBBW
TAF
TAF SBBW 191400Z 1918/2006 07004KT 9000 NSC TX38/1918Z TN25/2005Z BECMG 2000/2002 00000KT CAVOK RMK PDC
Forecast at SBBW
18:00 19-10-17 to 00:00 20-10-17
Wind:4 Knots from 70°
Visibility:5.59 statute miles
NSC
BECMG 00:00 20-10-17 to 06:00 20-10-17
NSW
Wind:0 Knots Variable direction
Visibility:6.21 statute miles
NSC